sensor_id;sensor_type;location;lat;lon;timestamp;pressure;altitude;pressure_sealevel;temperature;humidity
61324;BME280;47203;48.428;11.974;2023-10-08T00:01:51;97493.53;;;19.62;33.11
61324;BME280;47203;48.428;11.974;2023-10-08T00:03:57;97483.81;;;19.66;33.51
61324;BME280;47203;48.428;11.974;2023-10-08T00:06:06;97490.91;;;19.70;33.71
61324;BME280;47203;48.428;11.974;2023-10-08T00:08:15;97492.19;;;19.73;33.98
61324;BME280;47203;48.428;11.974;2023-10-08T00:10:21;97503.84;;;19.77;33.84
61324;BME280;47203;48.428;11.974;2023-10-08T00:12:28;97497.13;;;19.80;34.21
61324;BME280;47203;48.428;11.974;2023-10-08T00:14:36;97492.59;;;19.80;34.57
61324;BME280;47203;48.428;11.974;2023-10-08T00:16:46;97495.72;;;19.82;34.32
61324;BME280;47203;48.428;11.974;2023-10-08T00:18:52;97494.34;;;19.85;34.36
61324;BME280;47203;48.428;11.974;2023-10-08T00:21:01;97494.03;;;19.86;34.61
61324;BME280;47203;48.428;11.974;2023-10-08T00:23:18;97493.25;;;19.86;34.88
61324;BME280;47203;48.428;11.974;2023-10-08T00:25:28;97484.94;;;19.87;34.96
61324;BME280;47203;48.428;11.974;2023-10-08T00:27:33;97484.94;;;19.87;34.99
61324;BME280;47203;48.428;11.974;2023-10-08T00:29:44;97487.59;;;19.87;35.07
61324;BME280;47203;48.428;11.974;2023-10-08T00:31:49;97490.75;;;19.90;34.99
61324;BME280;47203;48.428;11.974;2023-10-08T00:33:52;97490.06;;;19.84;34.50
61324;BME280;47203;48.428;11.974;2023-10-08T00:35:58;97493.56;;;19.84;34.84
61324;BME280;47203;48.428;11.974;2023-10-08T00:38:19;97490.56;;;19.86;34.69
61324;BME280;47203;48.428;11.974;2023-10-08T00:40:36;97499.38;;;19.86;35.67
61324;BME280;47203;48.428;11.974;2023-10-08T00:42:42;97496.38;;;19.88;35.33
61324;BME280;47203;48.428;11.974;2023-10-08T00:44:51;97487.28;;;19.89;35.44
61324;BME280;47203;48.428;11.974;2023-10-08T00:46:56;97491.81;;;19.88;35.17
61324;BME280;47203;48.428;11.974;2023-10-08T00:49:03;97492.63;;;19.89;35.11
61324;BME280;47203;48.428;11.974;2023-10-08T00:51:27;97484.63;;;19.89;35.25
61324;BME280;47203;48.428;11.974;2023-10-08T00:53:42;97483.03;;;19.88;35.46
61324;BME280;47203;48.428;11.974;2023-10-08T00:55:45;97487.59;;;19.87;35.44
61324;BME280;47203;48.428;11.974;2023-10-08T00:57:58;97483.34;;;19.86;35.55
61324;BME280;47203;48.428;11.974;2023-10-08T01:00:13;97478.00;;;19.86;35.66
61324;BME280;47203;48.428;11.974;2023-10-08T01:02:25;97472.66;;;19.86;35.76
61324;BME280;47203;48.428;11.974;2023-10-08T01:04:45;97474.06;;;19.84;35.71
61324;BME280;47203;48.428;11.974;2023-10-08T01:06:53;97473.28;;;19.83;35.65
61324;BME280;47203;48.428;11.974;2023-10-08T01:09:01;97472.47;;;19.83;35.75
61324;BME280;47203;48.428;11.974;2023-10-08T01:11:21;97464.44;;;19.83;35.75
61324;BME280;47203;48.428;11.974;2023-10-08T01:13:33;97465.56;;;19.82;35.59
61324;BME280;47203;48.428;11.974;2023-10-08T01:15:49;97463.19;;;19.80;36.37
61324;BME280;47203;48.428;11.974;2023-10-08T01:17:57;97465.06;;;19.80;35.83
61324;BME280;47203;48.428;11.974;2023-10-08T01:20:04;97458.94;;;19.79;36.12
61324;BME280;47203;48.428;11.974;2023-10-08T01:22:25;97458.16;;;19.79;36.31
61324;BME280;47203;48.428;11.974;2023-10-08T01:24:31;97451.22;;;19.78;36.16
61324;BME280;47203;48.428;11.974;2023-10-08T01:26:39;97461.13;;;19.77;36.03
61324;BME280;47203;48.428;11.974;2023-10-08T01:28:44;97460.03;;;19.78;36.01
61324;BME280;47203;48.428;11.974;2023-10-08T01:30:49;97456.28;;;19.79;36.37
61324;BME280;47203;48.428;11.974;2023-10-08T01:32:56;97459.22;;;19.78;36.29
61324;BME280;47203;48.428;11.974;2023-10-08T01:35:06;97463.78;;;19.77;36.26
61324;BME280;47203;48.428;11.974;2023-10-08T01:37:27;97465.19;;;19.75;36.29
61324;BME280;47203;48.428;11.974;2023-10-08T01:39:36;97459.84;;;19.75;36.60
61324;BME280;47203;48.428;11.974;2023-10-08T01:41:44;97447.56;;;19.74;36.72
61324;BME280;47203;48.428;11.974;2023-10-08T01:43:48;97451.00;;;19.74;36.58
61324;BME280;47203;48.428;11.974;2023-10-08T01:45:54;97460.63;;;19.75;36.59
61324;BME280;47203;48.428;11.974;2023-10-08T01:48:00;97459.84;;;19.75;36.68
61324;BME280;47203;48.428;11.974;2023-10-08T01:50:06;97447.56;;;19.74;36.48
61324;BME280;47203;48.428;11.974;2023-10-08T01:52:23;97445.97;;;19.73;36.74
61324;BME280;47203;48.428;11.974;2023-10-08T01:54:32;97452.44;;;19.71;37.01
61324;BME280;47203;48.428;11.974;2023-10-08T01:56:39;97447.88;;;19.72;36.93
61324;BME280;47203;48.428;11.974;2023-10-08T01:58:48;97446.28;;;19.71;36.67
61324;BME280;47203;48.428;11.974;2023-10-08T02:00:53;97449.75;;;19.71;36.92
61324;BME280;47203;48.428;11.974;2023-10-08T02:03:01;97442.06;;;19.70;37.14
61324;BME280;47203;48.428;11.974;2023-10-08T02:05:10;97442.84;;;19.70;37.11
61324;BME280;47203;48.428;11.974;2023-10-08T02:07:17;97447.41;;;19.70;37.15
61324;BME280;47203;48.428;11.974;2023-10-08T02:09:23;97448.19;;;19.70;37.22
61324;BME280;47203;48.428;11.974;2023-10-08T02:11:31;97451.16;;;19.69;37.42
61324;BME280;47203;48.428;11.974;2023-10-08T02:13:36;97451.94;;;19.69;37.15
61324;BME280;47203;48.428;11.974;2023-10-08T02:15:44;97450.06;;;19.70;37.45
61324;BME280;47203;48.428;11.974;2023-10-08T02:17:49;97450.84;;;19.70;37.47
61324;BME280;47203;48.428;11.974;2023-10-08T02:19:56;97454.91;;;19.68;37.07
61324;BME280;47203;48.428;11.974;2023-10-08T02:22:02;97457.59;;;19.68;37.21
61324;BME280;47203;48.428;11.974;2023-10-08T02:24:10;97449.88;;;19.66;37.41
61324;BME280;47203;48.428;11.974;2023-10-08T02:26:15;97446.44;;;19.66;37.35
61324;BME280;47203;48.428;11.974;2023-10-08T02:28:24;97456.31;;;19.65;37.46
61324;BME280;47203;48.428;11.974;2023-10-08T02:30:29;97455.22;;;19.66;37.32
61324;BME280;47203;48.428;11.974;2023-10-08T02:32:34;97452.56;;;19.66;37.17
61324;BME280;47203;48.428;11.974;2023-10-08T02:34:39;97452.25;;;19.68;37.58
61324;BME280;47203;48.428;11.974;2023-10-08T02:36:44;97451.47;;;19.67;37.22
61324;BME280;47203;48.428;11.974;2023-10-08T02:38:50;97455.41;;;19.70;37.63
61324;BME280;47203;48.428;11.974;2023-10-08T02:40:57;97464.97;;;19.71;37.33
61324;BME280;47203;48.428;11.974;2023-10-08T02:43:02;97470.53;;;19.75;37.43
61324;BME280;47203;48.428;11.974;2023-10-08T02:45:14;97462.50;;;19.75;37.22
61324;BME280;47203;48.428;11.974;2023-10-08T02:47:20;97461.91;;;19.78;37.48
61324;BME280;47203;48.428;11.974;2023-10-08T02:49:25;97471.53;;;19.79;37.18
61324;BME280;47203;48.428;11.974;2023-10-08T02:51:33;97463.19;;;19.80;37.24
61324;BME280;47203;48.428;11.974;2023-10-08T02:53:36;97464.75;;;19.81;37.15
61324;BME280;47203;48.428;11.974;2023-10-08T02:55:44;97465.25;;;19.83;37.35
61324;BME280;47203;48.428;11.974;2023-10-08T02:57:49;97466.84;;;19.84;37.20
61324;BME280;47203;48.428;11.974;2023-10-08T02:59:55;97458.03;;;19.84;37.09
61324;BME280;47203;48.428;11.974;2023-10-08T03:02:03;97460.69;;;19.84;37.31
61324;BME280;47203;48.428;11.974;2023-10-08T03:04:15;97463.06;;;19.85;37.17
61324;BME280;47203;48.428;11.974;2023-10-08T03:06:21;97457.72;;;19.85;37.08
61324;BME280;47203;48.428;11.974;2023-10-08T03:08:27;97451.59;;;19.85;37.19
61324;BME280;47203;48.428;11.974;2023-10-08T03:10:33;97452.69;;;19.84;37.03
61324;BME280;47203;48.428;11.974;2023-10-08T03:12:39;97448.91;;;19.85;37.02
61324;BME280;47203;48.428;11.974;2023-10-08T03:14:45;97450.81;;;19.84;37.22
61324;BME280;47203;48.428;11.974;2023-10-08T03:17:06;97450.00;;;19.84;37.51
61324;BME280;47203;48.428;11.974;2023-10-08T03:19:11;97455.03;;;19.85;37.44
61324;BME280;47203;48.428;11.974;2023-10-08T03:21:17;97459.91;;;19.83;37.47
61324;BME280;47203;48.428;11.974;2023-10-08T03:23:46;97454.88;;;19.82;37.42
61324;BME280;47203;48.428;11.974;2023-10-08T03:25:53;97459.09;;;19.83;37.60
61324;BME280;47203;48.428;11.974;2023-10-08T03:28:12;97454.06;;;19.81;37.45
61324;BME280;47203;48.428;11.974;2023-10-08T03:30:18;97453.28;;;19.81;37.26
61324;BME280;47203;48.428;11.974;2023-10-08T03:32:32;97448.25;;;19.79;37.82
61324;BME280;47203;48.428;11.974;2023-10-08T03:34:37;97450.44;;;19.77;37.64
61324;BME280;47203;48.428;11.974;2023-10-08T03:36:47;97441.13;;;19.75;37.74
61324;BME280;47203;48.428;11.974;2023-10-08T03:38:52;97443.63;;;19.71;37.51
61324;BME280;47203;48.428;11.974;2023-10-08T03:40:55;97444.22;;;19.68;37.66
61324;BME280;47203;48.428;11.974;2023-10-08T03:43:06;97444.06;;;19.64;37.94
61324;BME280;47203;48.428;11.974;2023-10-08T03:45:21;97448.44;;;19.60;37.89
61324;BME280;47203;48.428;11.974;2023-10-08T03:47:41;97439.75;;;19.54;38.10
61324;BME280;47203;48.428;11.974;2023-10-08T03:49:55;97448.38;;;19.51;37.67
61324;BME280;47203;48.428;11.974;2023-10-08T03:52:08;97452.63;;;19.52;37.76
61324;BME280;47203;48.428;11.974;2023-10-08T03:54:13;97451.66;;;19.48;37.68
61324;BME280;47203;48.428;11.974;2023-10-08T03:56:26;97451.16;;;19.46;37.93
61324;BME280;47203;48.428;11.974;2023-10-08T03:58:34;97458.09;;;19.47;37.88
61324;BME280;47203;48.428;11.974;2023-10-08T04:00:43;97458.38;;;19.46;37.83
61324;BME280;47203;48.428;11.974;2023-10-08T04:02:51;97458.91;;;19.48;38.41
61324;BME280;47203;48.428;11.974;2023-10-08T04:05:04;97451.16;;;19.46;38.09
61324;BME280;47203;48.428;11.974;2023-10-08T04:07:22;97451.16;;;19.46;37.95
61324;BME280;47203;48.428;11.974;2023-10-08T04:09:41;97453.06;;;19.46;37.95
61324;BME280;47203;48.428;11.974;2023-10-08T04:11:49;97450.06;;;19.47;38.03
61324;BME280;47203;48.428;11.974;2023-10-08T04:13:56;97448.22;;;19.48;37.86
61324;BME280;47203;48.428;11.974;2023-10-08T04:16:04;97437.81;;;19.46;37.74
61324;BME280;47203;48.428;11.974;2023-10-08T04:18:12;97443.97;;;19.47;38.62
61324;BME280;47203;48.428;11.974;2023-10-08T04:20:18;97442.38;;;19.46;38.20
61324;BME280;47203;48.428;11.974;2023-10-08T04:22:36;97457.13;;;19.43;38.16
61324;BME280;47203;48.428;11.974;2023-10-08T04:24:41;97461.38;;;19.44;38.37
61324;BME280;47203;48.428;11.974;2023-10-08T04:26:46;97464.03;;;19.44;38.42
61324;BME280;47203;48.428;11.974;2023-10-08T04:28:51;97466.72;;;19.44;38.54
61324;BME280;47203;48.428;11.974;2023-10-08T04:30:59;97465.13;;;19.43;37.99
61324;BME280;47203;48.428;11.974;2023-10-08T04:33:19;97462.75;;;19.42;38.35
61324;BME280;47203;48.428;11.974;2023-10-08T04:35:25;97458.22;;;19.42;38.43
61324;BME280;47203;48.428;11.974;2023-10-08T04:37:30;97460.09;;;19.42;38.44
61324;BME280;47203;48.428;11.974;2023-10-08T04:39:36;97473.44;;;19.42;38.66
61324;BME280;47203;48.428;11.974;2023-10-08T04:41:42;97473.25;;;19.38;39.11
61324;BME280;47203;48.428;11.974;2023-10-08T04:43:48;97472.28;;;19.34;39.11
61324;BME280;47203;48.428;11.974;2023-10-08T04:45:58;97474.47;;;19.32;39.21
61324;BME280;47203;48.428;11.974;2023-10-08T04:48:07;97480.41;;;19.29;39.33
61324;BME280;47203;48.428;11.974;2023-10-08T04:50:19;97479.91;;;19.27;39.41
61324;BME280;47203;48.428;11.974;2023-10-08T04:52:32;97477.56;;;19.25;39.25
61324;BME280;47203;48.428;11.974;2023-10-08T04:54:47;97479.91;;;19.27;38.94
61324;BME280;47203;48.428;11.974;2023-10-08T04:56:58;97487.16;;;19.26;39.30
61324;BME280;47203;48.428;11.974;2023-10-08T04:59:00;97486.34;;;19.26;39.13
61324;BME280;47203;48.428;11.974;2023-10-08T05:01:08;97473.00;;;19.26;39.37
61324;BME280;47203;48.428;11.974;2023-10-08T05:03:21;97472.22;;;19.25;39.09
61324;BME280;47203;48.428;11.974;2023-10-08T05:05:37;97472.53;;;19.24;39.04
61324;BME280;47203;48.428;11.974;2023-10-08T05:07:56;97472.03;;;19.22;38.72
61324;BME280;47203;48.428;11.974;2023-10-08T05:10:15;97481.91;;;19.21;38.91
61324;BME280;47203;48.428;11.974;2023-10-08T05:12:35;97478.47;;;19.21;38.88
61324;BME280;47203;48.428;11.974;2023-10-08T05:14:48;97484.56;;;19.21;38.87
61324;BME280;47203;48.428;11.974;2023-10-08T05:16:58;97493.66;;;19.20;38.71
61324;BME280;47203;48.428;11.974;2023-10-08T05:19:05;97496.34;;;19.20;38.91
61324;BME280;47203;48.428;11.974;2023-10-08T05:21:41;97498.34;;;19.14;38.89
61324;BME280;47203;48.428;11.974;2023-10-08T05:24:07;97500.22;;;19.14;38.93
61324;BME280;47203;48.428;11.974;2023-10-08T05:26:15;97508.72;;;19.16;38.92
61324;BME280;47203;48.428;11.974;2023-10-08T05:28:34;97507.63;;;19.17;39.63
61324;BME280;47203;48.428;11.974;2023-10-08T05:30:38;97511.41;;;19.16;39.59
61324;BME280;47203;48.428;11.974;2023-10-08T05:32:44;97519.41;;;19.16;39.57
61324;BME280;47203;48.428;11.974;2023-10-08T05:35:08;97524.72;;;19.16;39.59
61324;BME280;47203;48.428;11.974;2023-10-08T05:37:30;97525.50;;;19.16;39.26
61324;BME280;47203;48.428;11.974;2023-10-08T05:39:44;97530.53;;;19.18;39.45
61324;BME280;47203;48.428;11.974;2023-10-08T05:41:56;97531.31;;;19.18;39.39
61324;BME280;47203;48.428;11.974;2023-10-08T05:44:15;97534.00;;;19.18;39.73
61324;BME280;47203;48.428;11.974;2023-10-08T05:46:26;97521.47;;;19.19;39.23
61324;BME280;47203;48.428;11.974;2023-10-08T05:48:50;97526.00;;;19.18;39.62
61324;BME280;47203;48.428;11.974;2023-10-08T05:51:06;97517.97;;;19.18;39.44
61324;BME280;47203;48.428;11.974;2023-10-08T05:53:18;97516.44;;;19.17;39.79
61324;BME280;47203;48.428;11.974;2023-10-08T05:55:46;97519.41;;;19.16;39.81
61324;BME280;47203;48.428;11.974;2023-10-08T05:57:49;97526.59;;;19.15;40.06
61324;BME280;47203;48.428;11.974;2023-10-08T06:00:07;97518.41;;;19.12;39.88
61324;BME280;47203;48.428;11.974;2023-10-08T06:02:32;97509.59;;;19.11;39.60
61324;BME280;47203;48.428;11.974;2023-10-08T06:04:58;97506.47;;;19.09;39.97
61324;BME280;47203;48.428;11.974;2023-10-08T06:07:22;97509.13;;;19.09;39.81
61324;BME280;47203;48.428;11.974;2023-10-08T06:09:38;97507.66;;;19.03;39.78
61324;BME280;47203;48.428;11.974;2023-10-08T06:11:52;97510.31;;;19.03;39.42
61324;BME280;47203;48.428;11.974;2023-10-08T06:14:10;97509.53;;;19.02;39.72
61324;BME280;47203;48.428;11.974;2023-10-08T06:16:19;97517.25;;;19.04;39.79
61324;BME280;47203;48.428;11.974;2023-10-08T06:18:33;97522.28;;;19.06;39.71
61324;BME280;47203;48.428;11.974;2023-10-08T06:20:40;97527.50;;;19.11;39.87
61324;BME280;47203;48.428;11.974;2023-10-08T06:22:45;97522.66;;;19.13;39.79
61324;BME280;47203;48.428;11.974;2023-10-08T06:24:52;97526.91;;;19.14;40.18
61324;BME280;47203;48.428;11.974;2023-10-08T06:27:18;97534.59;;;19.15;39.74
61324;BME280;47203;48.428;11.974;2023-10-08T06:29:27;97532.44;;;19.17;39.95
61324;BME280;47203;48.428;11.974;2023-10-08T06:31:33;97528.34;;;19.20;40.25
61324;BME280;47203;48.428;11.974;2023-10-08T06:33:40;97531.84;;;19.21;39.98
61324;BME280;47203;48.428;11.974;2023-10-08T06:35:45;97527.28;;;19.21;40.18
61324;BME280;47203;48.428;11.974;2023-10-08T06:38:04;97537.16;;;19.21;40.02
61324;BME280;47203;48.428;11.974;2023-10-08T06:40:14;97536.09;;;19.22;40.38
61324;BME280;47203;48.428;11.974;2023-10-08T06:42:32;97539.25;;;19.24;40.25
61324;BME280;47203;48.428;11.974;2023-10-08T06:44:37;97542.38;;;19.26;40.04
61324;BME280;47203;48.428;11.974;2023-10-08T06:46:44;97543.97;;;19.27;39.85
61324;BME280;47203;48.428;11.974;2023-10-08T06:48:50;97545.56;;;19.28;40.07
61324;BME280;47203;48.428;11.974;2023-10-08T06:50:56;97547.63;;;19.31;39.79
61324;BME280;47203;48.428;11.974;2023-10-08T06:53:09;97541.97;;;19.32;39.90
61324;BME280;47203;48.428;11.974;2023-10-08T06:55:14;97552.06;;;19.35;39.89
61324;BME280;47203;48.428;11.974;2023-10-08T06:57:20;97550.38;;;19.40;40.11
61324;BME280;47203;48.428;11.974;2023-10-08T06:59:28;97561.53;;;19.42;40.01
61324;BME280;47203;48.428;11.974;2023-10-08T07:01:33;97549.47;;;19.44;40.11
61324;BME280;47203;48.428;11.974;2023-10-08T07:03:43;97541.94;;;19.46;40.14
61324;BME280;47203;48.428;11.974;2023-10-08T07:05:50;97546.69;;;19.49;39.99
61324;BME280;47203;48.428;11.974;2023-10-08T07:08:05;97550.13;;;19.50;40.06
61324;BME280;47203;48.428;11.974;2023-10-08T07:10:09;97549.84;;;19.51;40.41
61324;BME280;47203;48.428;11.974;2023-10-08T07:12:18;97557.53;;;19.53;40.30
61324;BME280;47203;48.428;11.974;2023-10-08T07:14:28;97551.44;;;19.52;40.40
61324;BME280;47203;48.428;11.974;2023-10-08T07:16:33;97552.69;;;19.55;40.39
61324;BME280;47203;48.428;11.974;2023-10-08T07:18:38;97551.59;;;19.56;40.23
61324;BME280;47203;48.428;11.974;2023-10-08T07:20:47;97555.84;;;19.57;40.54
61324;BME280;47203;48.428;11.974;2023-10-08T07:22:56;97553.19;;;19.57;40.57
61324;BME280;47203;48.428;11.974;2023-10-08T07:25:05;97550.22;;;19.59;40.38
61324;BME280;47203;48.428;11.974;2023-10-08T07:27:10;97554.47;;;19.60;40.26
61324;BME280;47203;48.428;11.974;2023-10-08T07:29:18;97547.22;;;19.60;40.55
61324;BME280;47203;48.428;11.974;2023-10-08T07:31:24;97559.19;;;19.63;40.35
61324;BME280;47203;48.428;11.974;2023-10-08T07:33:31;97558.09;;;19.64;40.39
61324;BME280;47203;48.428;11.974;2023-10-08T07:35:38;97558.91;;;19.64;40.41
61324;BME280;47203;48.428;11.974;2023-10-08T07:37:53;97567.69;;;19.65;40.19
61324;BME280;47203;48.428;11.974;2023-10-08T07:39:58;97561.25;;;19.66;40.40
61324;BME280;47203;48.428;11.974;2023-10-08T07:42:08;97556.69;;;19.66;40.51
61324;BME280;47203;48.428;11.974;2023-10-08T07:44:13;97557.50;;;19.67;40.71
61324;BME280;47203;48.428;11.974;2023-10-08T07:46:18;97552.94;;;19.67;40.78
61324;BME280;47203;48.428;11.974;2023-10-08T07:48:23;97560.34;;;19.70;40.45
61324;BME280;47203;48.428;11.974;2023-10-08T07:50:31;97555.78;;;19.71;40.74
61324;BME280;47203;48.428;11.974;2023-10-08T07:52:40;97567.28;;;19.71;40.48
61324;BME280;47203;48.428;11.974;2023-10-08T07:54:46;97567.28;;;19.71;40.51
61324;BME280;47203;48.428;11.974;2023-10-08T07:56:51;97575.75;;;19.74;40.47
61324;BME280;47203;48.428;11.974;2023-10-08T07:58:59;97578.13;;;19.75;40.54
61324;BME280;47203;48.428;11.974;2023-10-08T08:01:10;97569.53;;;19.78;40.53
61324;BME280;47203;48.428;11.974;2023-10-08T08:03:19;97574.56;;;19.80;40.89
61324;BME280;47203;48.428;11.974;2023-10-08T08:05:25;97580.41;;;19.82;40.68
61324;BME280;47203;48.428;11.974;2023-10-08T08:07:30;97587.03;;;19.84;40.89
61324;BME280;47203;48.428;11.974;2023-10-08T08:09:35;97587.81;;;19.85;41.00
61324;BME280;47203;48.428;11.974;2023-10-08T08:11:41;97589.72;;;19.84;40.67
61324;BME280;47203;48.428;11.974;2023-10-08T08:13:48;97588.59;;;19.85;40.95
61324;BME280;47203;48.428;11.974;2023-10-08T08:15:57;97583.47;;;19.89;41.16
61324;BME280;47203;48.428;11.974;2023-10-08T08:18:11;97581.56;;;19.90;40.67
61324;BME280;47203;48.428;11.974;2023-10-08T08:20:27;97579.38;;;19.92;41.15
61324;BME280;47203;48.428;11.974;2023-10-08T08:22:40;97565.25;;;19.91;41.12
61324;BME280;47203;48.428;11.974;2023-10-08T08:24:53;97555.31;;;19.92;40.64
61324;BME280;47203;48.428;11.974;2023-10-08T08:27:07;97549.50;;;19.90;41.10
61324;BME280;47203;48.428;11.974;2023-10-08T08:29:13;97544.16;;;19.90;40.79
61324;BME280;47203;48.428;11.974;2023-10-08T08:31:19;97540.72;;;19.89;40.99
61324;BME280;47203;48.428;11.974;2023-10-08T08:33:24;97542.28;;;19.90;41.14
61324;BME280;47203;48.428;11.974;2023-10-08T08:36:00;97556.75;;;19.89;40.71
61324;BME280;47203;48.428;11.974;2023-10-08T08:38:07;97559.88;;;19.91;40.64
61324;BME280;47203;48.428;11.974;2023-10-08T08:40:12;97573.91;;;19.97;40.79
61324;BME280;47203;48.428;11.974;2023-10-08T08:42:21;97574.09;;;20.00;40.53
61324;BME280;47203;48.428;11.974;2023-10-08T08:44:30;97571.59;;;20.04;40.85
61324;BME280;47203;48.428;11.974;2023-10-08T08:46:37;97575.25;;;20.08;40.70
61324;BME280;47203;48.428;11.974;2023-10-08T08:48:44;97573.88;;;20.11;40.63
61324;BME280;47203;48.428;11.974;2023-10-08T08:50:52;97578.91;;;20.12;40.53
61324;BME280;47203;48.428;11.974;2023-10-08T08:53:02;97580.16;;;20.15;40.83
61324;BME280;47203;48.428;11.974;2023-10-08T08:55:08;97578.75;;;20.17;40.47
61324;BME280;47203;48.428;11.974;2023-10-08T08:57:17;97581.13;;;20.19;40.61
61324;BME280;47203;48.428;11.974;2023-10-08T08:59:23;97580.81;;;20.20;40.41
61324;BME280;47203;48.428;11.974;2023-10-08T09:01:32;97584.78;;;20.23;40.72
61324;BME280;47203;48.428;11.974;2023-10-08T09:03:38;97595.16;;;20.25;40.47
61324;BME280;47203;48.428;11.974;2023-10-08T09:05:43;97588.41;;;20.27;40.15
61324;BME280;47203;48.428;11.974;2023-10-08T09:07:55;97603.06;;;20.30;40.18
61324;BME280;47203;48.428;11.974;2023-10-08T09:10:04;97599.78;;;20.33;40.42
61324;BME280;47203;48.428;11.974;2023-10-08T09:12:16;97595.97;;;20.34;40.29
61324;BME280;47203;48.428;11.974;2023-10-08T09:14:25;97603.38;;;20.37;40.24
61324;BME280;47203;48.428;11.974;2023-10-08T09:16:34;97602.50;;;20.42;40.27
61324;BME280;47203;48.428;11.974;2023-10-08T09:18:41;97613.03;;;20.47;40.41
61324;BME280;47203;48.428;11.974;2023-10-08T09:20:48;97617.16;;;20.53;40.49
61324;BME280;47203;48.428;11.974;2023-10-08T09:23:05;97626.16;;;20.57;40.02
61324;BME280;47203;48.428;11.974;2023-10-08T09:25:20;97634.38;;;20.61;40.70
61324;BME280;47203;48.428;11.974;2023-10-08T09:27:26;97648.44;;;20.66;40.52
61324;BME280;47203;48.428;11.974;2023-10-08T09:29:34;97648.91;;;20.68;40.60
61324;BME280;47203;48.428;11.974;2023-10-08T09:31:42;97639.94;;;20.73;40.89
61324;BME280;47203;48.428;11.974;2023-10-08T09:33:57;97647.34;;;20.76;40.93
61324;BME280;47203;48.428;11.974;2023-10-08T09:36:04;97652.91;;;20.80;40.76
61324;BME280;47203;48.428;11.974;2023-10-08T09:38:07;97651.97;;;20.84;40.83
61324;BME280;47203;48.428;11.974;2023-10-08T09:40:14;97646.78;;;20.88;41.44
61324;BME280;47203;48.428;11.974;2023-10-08T09:42:26;97644.28;;;20.91;41.00
61324;BME280;47203;48.428;11.974;2023-10-08T09:44:32;97636.91;;;20.97;40.71
61324;BME280;47203;48.428;11.974;2023-10-08T09:46:37;97625.28;;;21.02;40.76
61324;BME280;47203;48.428;11.974;2023-10-08T09:48:49;97624.84;;;21.08;40.72
61324;BME280;47203;48.428;11.974;2023-10-08T09:50:58;97620.91;;;21.15;40.43
61324;BME280;47203;48.428;11.974;2023-10-08T09:53:09;97614.31;;;21.21;40.15
61324;BME280;47203;48.428;11.974;2023-10-08T09:55:19;97618.41;;;21.27;40.29
61324;BME280;47203;48.428;11.974;2023-10-08T09:57:27;97627.09;;;21.33;40.26
61324;BME280;47203;48.428;11.974;2023-10-08T09:59:33;97634.66;;;21.39;40.17
61324;BME280;47203;48.428;11.974;2023-10-08T10:01:41;97645.22;;;21.44;40.28
61324;BME280;47203;48.428;11.974;2023-10-08T10:03:47;97641.13;;;21.47;40.33
61324;BME280;47203;48.428;11.974;2023-10-08T10:05:53;97639.44;;;21.51;40.35
61324;BME280;47203;48.428;11.974;2023-10-08T10:08:04;97645.75;;;21.55;40.30
61324;BME280;47203;48.428;11.974;2023-10-08T10:10:25;97650.47;;;21.58;40.33
61324;BME280;47203;48.428;11.974;2023-10-08T10:12:36;97642.91;;;21.60;40.28
61324;BME280;47203;48.428;11.974;2023-10-08T10:14:42;97641.50;;;21.63;40.25
61324;BME280;47203;48.428;11.974;2023-10-08T10:16:48;97644.97;;;21.64;40.11
61324;BME280;47203;48.428;11.974;2023-10-08T10:18:55;97648.44;;;21.64;40.00
61324;BME280;47203;48.428;11.974;2023-10-08T10:21:30;97641.81;;;21.61;39.86
61324;BME280;47203;48.428;11.974;2023-10-08T10:23:37;97641.31;;;21.59;40.19
61324;BME280;47203;48.428;11.974;2023-10-08T10:25:42;97644.00;;;21.59;40.07
61324;BME280;47203;48.428;11.974;2023-10-08T10:28:25;97630.16;;;21.57;40.21
61324;BME280;47203;48.428;11.974;2023-10-08T10:30:30;97632.81;;;21.57;40.02
61324;BME280;47203;48.428;11.974;2023-10-08T10:32:36;97618.66;;;21.57;40.18
61324;BME280;47203;48.428;11.974;2023-10-08T10:34:43;97616.75;;;21.57;39.76
61324;BME280;47203;48.428;11.974;2023-10-08T10:36:50;97607.94;;;21.57;39.73
61324;BME280;47203;48.428;11.974;2023-10-08T10:38:57;97602.41;;;21.53;39.68
61324;BME280;47203;48.428;11.974;2023-10-08T10:41:04;97588.56;;;21.51;39.73
61324;BME280;47203;48.428;11.974;2023-10-08T10:43:11;97589.94;;;21.49;39.46
61324;BME280;47203;48.428;11.974;2023-10-08T10:45:20;97583.31;;;21.46;39.68
61324;BME280;47203;48.428;11.974;2023-10-08T10:47:39;97577.00;;;21.42;39.45
61324;BME280;47203;48.428;11.974;2023-10-08T10:49:49;97576.53;;;21.40;39.56
61324;BME280;47203;48.428;11.974;2023-10-08T10:51:55;97589.16;;;21.39;39.49
61324;BME280;47203;48.428;11.974;2023-10-08T10:54:00;97603.00;;;21.41;39.55
61324;BME280;47203;48.428;11.974;2023-10-08T10:56:12;97604.59;;;21.42;39.45
61324;BME280;47203;48.428;11.974;2023-10-08T10:58:20;97601.28;;;21.45;39.46
61324;BME280;47203;48.428;11.974;2023-10-08T11:00:29;97599.88;;;21.48;39.81
61324;BME280;47203;48.428;11.974;2023-10-08T11:02:47;97589.94;;;21.49;39.74
61324;BME280;47203;48.428;11.974;2023-10-08T11:04:53;97575.16;;;21.51;39.31
61324;BME280;47203;48.428;11.974;2023-10-08T11:07:03;97567.41;;;21.50;39.20
61324;BME280;47203;48.428;11.974;2023-10-08T11:09:08;97565.06;;;21.48;39.48
61324;BME280;47203;48.428;11.974;2023-10-08T11:11:18;97563.47;;;21.47;39.58
61324;BME280;47203;48.428;11.974;2023-10-08T11:13:29;97571.50;;;21.47;39.65
61324;BME280;47203;48.428;11.974;2023-10-08T11:15:43;97597.97;;;21.49;39.66
61324;BME280;47203;48.428;11.974;2023-10-08T11:17:51;97612.66;;;21.51;39.63
61324;BME280;47203;48.428;11.974;2023-10-08T11:19:58;97600.53;;;21.54;39.61